Date,TemperatureHighF,TemperatureAvgF,TemperatureLowF,DewpointHighF,DewpointAvgF,DewpointLowF,HumidityHigh,HumidityAvg,HumidityLow,PressureMaxIn,PressureMinIn,WindSpeedMaxMPH,WindSpeedAvgMPH,GustSpeedMaxMPH,PrecipitationSumIn
2013-1-1,75.0,63.8,52.0,66.0,59.5,49.0,98,87,62,0.00,40.00,9,5,20,0.10
2013-1-2,62.0,53.1,46.0,61.0,47.8,41.0,95,83,66,0.00,40.00,7,6,17,0.07
2013-1-3,46.0,41.5,34.0,42.0,38.9,31.0,95,90,80,0.00,40.00,5,4,14,0.22
2013-1-4,57.0,42.4,32.0,35.0,30.7,27.0,90,66,34,0.00,40.00,6,3,14,0.01
2013-1-5,54.0,45.4,37.0,41.0,34.2,29.0,81,66,42,0.00,40.00,5,2,12,0.00
2013-1-6,53.0,48.4,44.0,44.0,40.0,37.0,89,73,57,0.00,40.00,4,3,12,0.00
2013-1-7,63.0,47.0,37.0,40.0,36.1,34.0,94,69,35,0.00,40.00,7,3,15,0.00
2013-1-8,62.0,52.1,43.0,54.0,45.4,36.0,85,78,65,0.00,40.00,5,2,11,0.00
2013-1-9,67.0,62.3,58.0,62.0,58.5,53.0,94,87,81,0.00,40.00,5,4,12,0.00
2013-1-10,76.0,68.1,63.0,68.0,64.2,61.0,98,88,71,0.00,40.00,9,5,24,0.03
2013-1-11,77.0,68.8,61.0,67.0,64.2,60.0,97,86,68,0.00,40.00,9,4,24,0.01
2013-1-12,78.0,69.5,65.0,66.0,63.4,59.0,97,82,53,0.00,40.00,8,4,20,0.00
2013-1-13,76.0,70.0,66.0,68.0,66.2,65.0,96,88,73,0.00,40.00,8,5,20,0.00
2013-1-14,78.0,69.9,54.0,70.0,66.7,53.0,96,90,70,0.00,40.00,8,5,20,0.05
2013-1-15,78.0,67.2,54.0,70.0,64.8,53.0,98,93,75,0.00,40.00,8,4,21,0.08
2013-1-16,69.0,58.0,49.0,68.0,57.0,48.0,98,96,95,0.00,40.00,7,4,14,1.21
2013-1-17,49.0,40.9,37.0,48.0,36.7,31.0,97,85,75,0.00,40.00,10,7,24,0.08
2013-1-18,61.0,45.0,34.0,38.0,34.0,31.0,92,69,36,0.00,40.00,8,4,19,0.01
2013-1-19,61.0,47.7,34.0,46.0,37.2,31.0,90,69,39,0.00,40.00,6,2,10,0.00
2013-1-20,68.0,50.9,39.0,45.0,41.4,38.0,96,74,36,0.00,40.00,6,2,12,0.00
2013-1-21,68.0,51.8,38.0,42.0,39.7,37.0,96,67,36,0.00,40.00,6,3,14,0.00
2013-1-22,59.0,45.4,36.0,37.0,30.1,24.0,78,59,26,0.00,40.00,5,3,13,0.00
2013-1-23,65.0,47.7,32.0,47.0,37.3,29.0,93,71,38,0.00,40.00,4,2,10,0.00
2013-1-24,71.0,56.1,46.0,54.0,49.3,45.0,96,80,49,0.00,40.00,8,3,17,0.00
2013-1-25,73.0,57.7,49.0,54.0,51.2,48.0,97,81,51,0.00,40.00,8,3,18,0.00
2013-1-26,74.0,59.6,53.0,59.0,55.0,51.0,97,86,58,0.00,40.00,5,2,12,0.00
2013-1-27,75.0,59.4,47.0,54.0,48.7,40.0,93,70,45,0.00,40.00,5,3,13,0.00
2013-1-28,72.0,61.1,56.0,61.0,56.3,49.0,97,85,67,0.00,40.00,5,2,10,0.00
2013-1-29,77.0,67.4,59.0,68.0,63.2,58.0,97,87,67,0.00,40.00,10,5,21,0.04
2013-1-30,76.0,62.8,44.0,69.0,58.9,34.0,97,87,68,0.00,40.00,14,8,38,1.04
2013-1-31,58.0,47.4,34.0,34.0,28.1,23.0,83,50,27,0.00,40.00,9,5,21,0.04
2013-2-1,59.0,44.4,36.0,34.0,29.7,22.0,88,60,27,0.00,40.00,8,4,17,0.00
2013-2-2,67.0,47.0,31.0,43.0,27.8,20.0,81,52,21,0.00,40.00,6,3,13,0.00
2013-2-3,68.0,53.4,40.0,48.0,36.0,25.0,96,58,20,0.00,40.00,8,4,17,0.00
2013-2-4,62.0,50.4,39.0,48.0,38.7,33.0,87,67,36,0.00,40.00,4,2,10,0.00
2013-2-5,63.0,56.3,51.0,59.0,54.0,48.0,97,92,80,0.00,40.00,3,1,9,0.11
2013-2-6,71.0,59.2,54.0,58.0,54.6,53.0,98,87,57,0.00,40.00,5,2,11,0.03
2013-2-7,73.0,60.3,55.0,61.0,57.2,53.0,98,90,67,0.00,40.00,7,3,20,2.16
2013-2-8,70.0,61.0,56.0,57.0,54.2,49.0,97,79,58,0.00,40.00,6,3,18,0.01
2013-2-9,68.0,51.5,38.0,49.0,38.9,34.0,93,66,31,0.00,40.00,6,3,15,0.00
2013-2-10,68.0,59.0,44.0,65.0,53.9,39.0,97,83,73,0.00,40.00,10,6,26,1.38
2013-2-11,64.0,59.4,56.0,63.0,58.2,55.0,98,96,89,0.00,40.00,7,2,24,2.96
2013-2-12,61.0,58.4,56.0,59.0,56.8,55.0,98,95,89,0.00,40.00,6,3,14,1.30
2013-2-13,66.0,53.9,44.0,65.0,51.5,42.0,98,92,75,0.00,40.00,9,4,18,0.42
2013-2-14,57.0,44.8,39.0,42.0,39.1,37.0,94,82,54,0.00,40.00,5,3,12,0.04
2013-2-15,67.0,49.0,34.0,43.0,37.4,33.0,97,70,30,0.00,40.00,5,2,10,0.00
2013-2-16,53.0,45.3,32.0,41.0,26.9,13.0,82,52,24,0.00,40.00,12,6,25,0.01
2013-2-17,57.0,39.8,27.0,29.0,20.6,10.0,78,52,18,0.00,40.00,6,3,12,0.01
2013-2-18,66.0,48.3,32.0,40.0,34.6,28.0,87,62,34,0.00,40.00,9,5,20,0.00
2013-2-19,66.0,56.5,42.0,59.0,43.7,25.0,96,66,23,0.00,40.00,9,6,22,0.16
2013-2-20,61.0,45.3,33.0,33.0,26.0,20.0,78,51,21,0.00,40.00,5,3,13,0.03
2013-2-21,70.0,52.5,36.0,59.0,38.6,26.0,93,62,30,0.00,40.00,7,4,17,0.00
2013-2-22,68.0,65.0,61.0,66.0,63.8,59.0,98,97,92,0.00,40.00,6,3,14,1.37
2013-2-23,69.0,57.6,54.0,68.0,56.3,53.0,99,96,90,0.00,40.00,5,3,14,1.51
2013-2-24,73.0,59.3,49.0,53.0,47.7,41.0,98,71,33,0.00,40.00,6,3,11,0.06
2013-2-25,68.0,57.8,53.0,61.0,55.9,51.0,98,94,73,0.00,40.00,9,5,22,2.39
2013-2-26,65.0,58.0,50.0,62.0,49.0,39.0,98,75,41,0.00,40.00,8,5,20,1.33
2013-2-27,65.0,51.1,42.0,43.0,39.1,36.0,91,67,37,0.00,40.00,6,3,15,0.00
2013-2-28,59.0,48.6,41.0,42.0,34.9,29.0,94,62,34,0.00,40.00,9,4,20,0.00
2013-3-1,55.0,44.2,35.0,34.0,30.4,28.0,84,60,38,0.00,40.00,8,4,18,0.00
2013-3-2,46.0,37.8,29.0,29.0,25.1,21.0,92,62,38,0.00,40.00,10,6,24,0.00
2013-3-3,52.0,39.7,32.0,25.0,22.5,17.0,71,52,27,0.00,40.00,8,5,17,0.00
2013-3-4,68.0,47.6,30.0,46.0,33.5,24.0,90,64,24,0.00,40.00,7,4,19,0.00
2013-3-5,75.0,58.5,43.0,58.0,50.3,38.0,90,76,49,0.00,40.00,10,5,26,0.08
2013-3-6,56.0,45.1,38.0,38.0,29.5,25.0,92,57,30,0.00,40.00,11,6,24,0.08
2013-3-7,67.0,48.0,32.0,34.0,30.0,27.0,87,54,25,0.00,40.00,5,4,12,0.00
2013-3-8,73.0,54.1,38.0,37.0,31.2,25.0,79,47,17,0.00,40.00,5,3,13,0.00
2013-3-9,74.0,58.0,44.0,46.0,38.7,29.0,72,51,26,0.00,40.00,6,3,17,0.00
2013-3-10,75.0,62.9,54.0,55.0,48.9,36.0,87,61,49,0.00,40.00,10,6,26,0.00
2013-3-11,67.0,56.7,46.0,61.0,54.1,42.0,96,91,79,0.00,40.00,8,6,32,1.26
2013-3-12,65.0,50.3,39.0,42.0,35.4,31.0,92,62,29,0.00,40.00,8,5,22,0.03
2013-3-13,65.0,52.7,40.0,36.0,28.4,15.0,84,44,16,0.00,40.00,10,6,22,0.00
2013-3-14,65.0,47.7,34.0,31.0,23.7,17.0,71,43,16,0.00,40.00,6,3,15,0.00
2013-3-15,78.0,55.9,37.0,46.0,38.0,31.0,86,57,25,0.00,40.00,7,4,16,0.00
2013-3-16,79.0,61.7,47.0,54.0,48.9,46.0,96,67,35,0.00,40.00,9,4,20,0.00
2013-3-17,72.0,61.3,51.0,61.0,56.7,50.0,97,86,68,0.00,40.00,6,3,11,0.00
2013-3-18,79.0,67.1,58.0,67.0,61.9,57.0,97,84,65,0.00,40.00,9,5,20,0.19
2013-3-19,78.0,63.1,55.0,58.0,49.7,38.0,97,67,29,0.00,40.00,5,4,19,0.48
2013-3-20,65.0,56.1,46.0,38.0,31.5,28.0,56,40,25,0.00,40.00,7,4,16,0.01
2013-3-21,66.0,51.2,39.0,34.0,26.9,18.0,81,43,16,0.00,40.00,8,4,16,0.00
2013-3-22,63.0,53.9,46.0,40.0,31.9,26.0,59,44,28,0.00,40.00,7,4,16,0.00
2013-3-23,70.0,59.4,52.0,60.0,52.0,40.0,97,77,57,0.00,40.00,6,4,14,0.07
2013-3-24,83.0,67.8,48.0,69.0,55.0,30.0,98,68,28,0.00,40.00,11,6,27,0.11
2013-3-25,59.0,47.4,37.0,30.0,23.2,15.0,64,41,21,0.00,40.00,11,7,28,0.01
2013-3-26,55.0,42.6,30.0,26.0,23.3,21.0,76,49,28,0.00,40.00,10,6,23,0.00
2013-3-27,63.0,44.2,31.0,27.0,24.7,22.0,79,52,21,0.00,40.00,6,4,14,0.00
2013-3-28,74.0,63.6,47.0,37.0,30.5,26.0,68,33,18,0.00,40.00,4,2,10,0.00
2013-3-29,78.0,57.9,39.0,45.0,36.4,30.0,94,53,19,0.00,40.00,8,3,18,0.00
2013-3-30,80.0,62.8,48.0,57.0,48.6,-99.9,96,68,35,0.00,40.00,8,4,19,0.00
2013-3-31,83.0,67.9,55.0,64.0,58.0,54.0,98,74,40,0.00,40.00,8,4,20,0.03
2013-4-1,75.0,63.8,56.0,63.0,56.9,51.0,97,80,48,0.00,40.00,7,3,14,0.03
2013-4-2,83.0,65.5,49.0,52.0,46.5,42.0,94,57,24,0.00,40.00,5,3,13,0.01
2013-4-3,59.0,56.4,52.0,57.0,50.6,44.0,95,82,59,0.00,40.00,11,3,20,0.40
2013-4-4,71.0,61.7,57.0,61.0,58.3,55.0,96,89,70,0.00,40.00,5,2,12,0.01
2013-4-5,67.0,55.0,50.0,55.0,48.6,46.0,96,81,48,0.00,40.00,8,4,17,0.03
2013-4-6,79.0,60.9,44.0,48.0,44.8,42.0,95,62,27,0.00,40.00,5,3,13,0.02
2013-4-7,78.0,63.3,48.0,59.0,52.6,46.0,94,71,44,0.00,40.00,6,4,15,0.00
2013-4-8,83.0,68.2,54.0,60.0,56.6,53.0,97,71,41,0.00,40.00,7,4,20,0.00
2013-4-9,89.0,72.3,60.0,60.0,57.5,56.0,91,64,36,0.00,40.00,8,5,17,0.00
2013-4-10,87.0,72.7,58.0,61.0,58.0,55.0,89,63,38,0.00,40.00,7,5,17,0.00
2013-4-11,80.0,71.1,63.0,71.0,66.8,56.0,97,87,72,0.00,40.00,12,6,34,0.92
2013-4-12,75.0,63.4,54.0,66.0,51.1,45.0,97,68,35,0.00,40.00,9,5,19,0.92
2013-4-13,82.0,65.3,48.0,52.0,45.2,39.0,91,54,22,0.00,40.00,5,3,12,0.00
2013-4-14,63.0,58.7,56.0,58.0,55.1,48.0,97,89,58,0.00,40.00,11,3,29,1.69
2013-4-15,85.0,70.2,57.0,70.0,63.8,56.0,97,82,61,0.00,40.00,4,3,12,0.14
2013-4-16,89.0,75.7,64.0,70.0,66.0,62.0,95,74,46,0.00,40.00,6,3,13,0.00
2013-4-17,85.0,74.3,66.0,70.0,67.0,63.0,96,79,58,0.00,40.00,5,3,12,0.00
2013-4-18,85.0,72.7,63.0,68.0,65.0,61.0,94,79,53,0.00,40.00,8,5,19,0.00
2013-4-19,74.0,60.4,48.0,70.0,57.8,46.0,95,91,84,0.00,40.00,10,5,27,0.67
2013-4-20,69.0,54.6,41.0,47.0,41.3,38.0,96,66,32,0.00,40.00,5,3,21,0.07
2013-4-21,76.0,59.9,43.0,48.0,43.0,39.0,87,58,29,0.00,40.00,8,4,17,0.01
2013-4-22,69.0,62.6,55.0,58.0,52.6,43.0,90,71,58,0.00,40.00,6,3,15,0.00
2013-4-23,80.0,66.9,57.0,59.0,56.3,54.0,92,72,47,0.00,40.00,7,3,15,0.00
2013-4-24,81.0,67.7,57.0,66.0,61.7,56.0,97,83,56,0.00,40.00,6,2,15,0.00
2013-4-25,81.0,66.7,58.0,64.0,54.2,41.0,95,68,37,0.00,40.00,6,4,15,0.00
2013-4-26,85.0,66.4,48.0,52.0,40.6,36.0,73,44,18,0.00,40.00,6,3,12,0.00
2013-4-27,85.0,68.6,54.0,66.0,59.4,50.0,94,74,52,0.00,40.00,8,3,17,0.00
2013-4-28,84.0,73.7,66.0,69.0,63.5,60.0,98,73,45,0.00,40.00,6,3,17,0.00
2013-4-29,83.0,69.8,62.0,68.0,63.1,60.0,97,81,50,0.00,40.00,6,2,17,0.35
2013-4-30,84.0,70.5,60.0,67.0,63.6,59.0,98,81,52,0.00,40.00,6,3,13,0.34
2013-5-1,68.0,66.1,65.0,65.0,64.0,62.0,96,92,84,0.00,40.00,6,4,17,0.57
2013-5-2,76.0,68.3,63.0,67.0,62.1,58.0,90,81,71,0.00,40.00,7,5,20,0.20
2013-5-3,70.0,66.5,62.0,63.0,61.3,59.0,96,84,70,0.00,40.00,6,4,21,0.28
2013-5-4,68.0,55.3,46.0,61.0,43.5,36.0,95,69,32,0.00,40.00,11,7,24,1.14
2013-5-5,74.0,57.1,43.0,55.0,43.0,37.0,93,63,29,0.00,40.00,9,4,24,0.01
2013-5-6,66.0,55.7,43.0,55.0,46.2,41.0,94,73,48,0.00,40.00,6,3,17,0.01
2013-5-7,77.0,62.6,52.0,57.0,54.1,51.0,96,77,42,0.00,40.00,6,3,13,0.01
2013-5-8,84.0,68.8,54.0,62.0,56.8,53.0,96,70,38,0.00,40.00,4,2,13,0.00
2013-5-9,89.0,71.9,57.0,65.0,60.2,56.0,97,71,38,0.00,40.00,4,2,10,0.00
2013-5-10,80.0,68.5,60.0,67.0,59.1,-99.9,96,79,53,0.00,40.00,8,3,19,0.00
2013-5-11,76.0,67.4,62.0,67.0,62.7,-99.9,97,88,69,0.00,40.00,5,2,16,0.02
2013-5-12,81.0,70.1,61.0,64.0,56.2,49.0,97,66,38,0.00,40.00,8,4,17,0.01
2013-5-13,79.0,64.5,49.0,49.0,42.1,34.0,81,49,22,0.00,40.00,8,4,18,0.00
2013-5-14,87.0,68.5,50.0,54.0,49.8,48.0,94,58,27,0.00,40.00,5,2,11,0.00
2013-5-15,89.0,72.1,56.0,61.0,54.3,50.0,94,59,31,0.00,40.00,6,3,13,0.00
2013-5-16,87.0,65.5,62.0,68.0,40.2,-99.9,93,67,45,0.00,40.00,6,3,14,0.00
2013-5-17,88.0,73.4,66.0,70.0,58.1,-99.9,98,77,47,0.00,40.00,6,3,16,0.00
2013-5-18,85.0,75.1,69.0,73.0,68.7,65.0,95,82,59,0.00,40.00,5,3,12,0.00
2013-5-19,89.0,75.6,67.0,71.0,68.1,66.0,97,80,49,0.00,40.00,5,2,12,0.00
2013-5-20,93.0,77.8,67.0,73.0,68.3,66.0,97,76,43,0.00,40.00,5,2,12,0.01
2013-5-21,93.0,77.8,67.0,73.0,66.9,64.0,97,73,40,0.00,40.00,6,2,13,0.01
2013-5-22,90.0,76.2,65.0,71.0,67.3,64.0,97,77,46,0.00,40.00,5,2,12,0.00
2013-5-23,94.0,79.6,66.0,70.0,63.6,58.0,97,64,31,0.00,40.00,6,3,15,0.00
2013-5-24,91.0,77.6,65.0,63.0,57.3,47.0,87,54,27,0.00,40.00,8,4,21,0.00
2013-5-25,91.0,72.9,55.0,53.0,48.1,44.0,69,45,21,0.00,40.00,6,3,11,0.00
2013-5-26,94.0,75.4,59.0,66.0,57.7,52.0,90,60,27,0.00,40.00,5,2,12,0.00
2013-5-27,94.0,77.8,65.0,69.0,60.8,55.0,96,63,29,0.00,40.00,6,2,14,0.00
2013-5-28,96.0,77.5,62.0,69.0,63.1,56.0,90,64,37,0.00,40.00,6,3,13,0.00
2013-5-29,92.0,76.1,66.0,72.0,66.9,63.0,93,76,39,0.00,40.00,8,4,21,0.04
2013-5-30,90.0,78.5,69.0,71.0,68.7,66.0,95,74,50,0.00,40.00,8,4,20,0.01
2013-5-31,90.0,78.3,70.0,72.0,69.3,66.0,95,75,50,0.00,40.00,8,4,14,0.01
2013-6-1,91.0,78.9,70.0,72.0,68.4,-99.9,95,76,52,0.00,40.00,6,3,14,0.01
2013-6-2,94.0,77.9,70.0,73.0,70.1,69.0,97,80,44,0.00,40.00,12,3,22,1.46
2013-6-3,90.0,75.9,70.0,76.0,72.3,69.0,97,90,56,0.00,40.00,5,1,12,2.18
2013-6-4,93.0,78.6,71.0,76.0,72.5,70.0,97,84,49,0.00,40.00,8,2,15,0.04
2013-6-5,87.0,76.8,69.0,74.0,71.7,68.0,97,85,59,0.00,40.00,5,3,16,0.21
2013-6-6,86.0,75.6,67.0,71.0,69.2,66.0,97,82,60,0.00,40.00,5,3,12,0.19
2013-6-7,84.0,74.9,67.0,69.0,68.1,66.0,96,81,60,0.00,40.00,6,3,13,0.01
2013-6-8,92.0,78.6,66.0,73.0,69.1,65.0,97,75,49,0.00,40.00,6,3,15,0.00
2013-6-9,76.0,71.8,70.0,73.0,70.4,69.0,97,95,88,0.00,40.00,7,4,17,2.88
2013-6-10,84.0,74.5,71.0,75.0,71.5,69.0,97,91,73,0.00,40.00,5,3,10,0.55
2013-6-11,95.0,81.2,71.0,76.0,72.2,68.0,97,78,43,0.00,40.00,6,3,12,0.05
2013-6-12,97.0,84.4,73.0,76.0,73.0,68.0,97,72,41,0.00,40.00,5,3,11,0.00
2013-6-13,96.0,84.8,74.0,75.0,71.6,69.0,94,68,42,0.00,40.00,6,4,15,0.00
2013-6-14,93.0,80.9,71.0,75.0,70.8,64.0,95,74,44,0.00,40.00,6,3,14,0.05
2013-6-15,95.0,81.6,70.0,75.0,68.9,63.0,87,67,40,0.00,40.00,5,3,12,0.01
2013-6-16,95.0,82.2,74.0,76.0,73.8,72.0,96,78,48,0.00,40.00,5,3,12,0.00
2013-6-17,90.0,78.9,72.0,78.0,74.1,69.0,96,86,66,0.00,40.00,5,3,15,0.59
2013-6-18,91.0,79.5,72.0,77.0,73.4,69.0,97,83,61,0.00,40.00,5,3,17,0.38
2013-6-19,87.0,77.6,70.0,74.0,71.4,69.0,97,83,63,0.00,40.00,6,3,14,0.12
2013-6-20,91.0,78.4,70.0,73.0,70.9,69.0,96,80,51,0.00,40.00,4,1,9,0.01
2013-6-22,93.0,85.2,74.0,72.0,70.0,68.0,87,62,45,0.00,40.00,5,3,14,0.00
2013-6-23,83.0,75.4,70.0,75.0,71.9,68.0,96,89,73,0.00,40.00,4,2,12,0.17
2013-6-24,93.0,78.6,72.0,75.0,72.2,70.0,98,84,47,0.00,40.00,4,2,11,0.08
2013-6-25,89.0,76.9,69.0,77.0,73.3,69.0,100,90,63,0.00,40.00,5,2,15,0.29
2013-6-26,95.0,82.3,71.0,76.0,73.8,71.0,100,78,50,0.00,40.00,4,2,11,0.04
2013-6-27,95.0,82.7,73.0,78.0,75.2,73.0,100,80,51,0.00,40.00,5,2,14,0.00
2013-6-28,96.0,80.8,72.0,80.0,75.3,72.0,100,86,50,0.00,40.00,9,3,19,1.25
2013-6-29,91.0,77.6,71.0,76.0,73.0,71.0,100,88,60,0.00,40.00,9,3,19,1.43
2013-6-30,89.0,78.6,71.0,78.0,73.8,71.0,100,87,57,0.00,40.00,4,1,8,0.63
2013-7-1,91.0,78.9,69.0,76.0,70.5,65.0,100,80,42,0.00,40.00,8,2,19,0.77
2013-7-2,89.0,76.7,69.0,79.0,73.0,69.0,100,90,59,0.00,40.00,3,1,7,0.89
2013-7-3,77.0,72.9,71.0,77.0,72.9,71.0,100,100,100,0.00,40.00,6,2,15,0.18
2013-7-4,75.0,73.0,72.0,75.0,73.0,72.0,100,100,100,0.00,40.00,10,5,22,3.88
2013-7-5,75.0,72.1,69.0,75.0,72.1,69.0,100,100,100,0.00,40.00,6,3,14,1.75
2013-7-6,80.0,73.9,69.0,80.0,73.9,69.0,100,100,100,0.00,40.00,4,2,9,0.21
2013-7-7,84.0,74.9,72.0,83.0,74.6,72.0,100,99,83,0.00,40.00,5,2,13,0.20
2013-7-8,89.0,76.7,72.0,80.0,74.7,72.0,100,95,65,0.00,40.00,6,1,11,0.14
2013-7-9,93.0,79.1,70.0,80.0,74.6,70.0,100,88,55,0.00,40.00,4,2,9,0.03
2013-7-10,89.0,76.7,73.0,83.0,71.5,-99.9,100,90,67,0.00,40.00,5,2,12,0.10
2013-7-11,82.0,76.5,74.0,79.0,75.1,74.0,100,96,77,0.00,40.00,6,2,14,0.02
2013-7-12,94.0,79.4,71.0,77.0,72.8,69.0,100,83,51,0.00,40.00,4,1,10,0.00
2013-7-13,89.0,76.6,69.0,75.0,72.6,69.0,100,89,63,0.00,40.00,4,1,12,1.05
2013-7-14,85.0,74.5,68.0,77.0,72.7,68.0,100,95,71,0.00,40.00,6,2,17,1.50
2013-7-15,90.0,77.9,71.0,76.0,72.5,69.0,100,86,55,0.00,40.00,7,3,26,0.06
2013-7-16,91.0,84.0,73.0,75.0,72.0,70.0,100,70,52,0.00,40.00,8,4,20,0.04
2013-7-17,94.0,81.7,72.0,76.0,72.6,70.0,100,77,48,0.00,40.00,5,2,13,0.04
2013-7-18,92.0,78.4,69.0,75.0,72.4,69.0,100,84,54,0.00,40.00,6,2,20,0.07
2013-7-19,90.0,75.8,70.0,76.0,73.2,70.0,100,93,56,0.00,40.00,3,1,20,0.09
2013-7-20,83.0,74.6,72.0,81.0,73.2,-99.9,100,98,93,0.00,40.00,5,2,12,0.60
2013-7-21,88.0,77.8,73.0,81.0,74.8,72.0,100,91,66,0.00,40.00,8,3,21,0.20
2013-7-22,89.0,76.6,72.0,79.0,74.4,72.0,100,94,62,0.00,40.00,9,2,22,0.98
2013-7-23,91.0,77.4,69.0,77.0,72.8,68.0,100,88,56,0.00,40.00,15,3,37,0.11
2013-7-24,90.0,76.1,69.0,78.0,74.0,69.0,100,94,67,0.00,40.00,5,2,20,0.82
2013-7-25,92.0,80.4,70.0,76.0,72.9,70.0,100,81,52,0.00,40.00,6,3,13,0.01
2013-7-26,93.0,81.5,71.0,75.0,70.3,66.0,100,73,44,0.00,40.00,5,2,13,0.00
2013-7-27,89.0,75.7,71.0,78.0,73.5,71.0,100,94,65,0.00,40.00,4,0,11,0.46
2013-7-28,93.0,79.6,73.0,78.0,75.2,73.0,100,88,59,0.00,40.00,4,2,12,0.05
2013-7-29,94.0,80.2,72.0,80.0,75.2,72.0,100,87,53,0.00,40.00,4,1,10,0.02
2013-7-30,95.0,83.1,74.0,81.0,76.4,73.0,100,82,50,0.00,40.00,4,2,11,0.04
2013-7-31,92.0,79.6,74.0,79.0,76.6,73.0,100,92,54,0.00,40.00,4,1,9,0.71
2013-8-1,89.0,78.0,72.0,80.0,76.3,72.0,100,95,70,0.00,40.00,6,2,17,0.59
2013-8-2,96.0,81.5,72.0,77.0,74.5,71.0,100,82,45,0.00,40.00,4,1,10,0.38
2013-8-3,96.0,83.6,74.0,78.0,74.1,69.0,100,77,45,0.00,40.00,6,2,13,0.00
2013-8-4,96.0,83.3,75.0,78.0,74.9,72.0,100,79,47,0.00,40.00,6,2,18,0.00
2013-8-5,94.0,83.1,74.0,76.0,73.4,71.0,98,76,47,0.00,40.00,6,2,15,0.00
2013-8-6,96.0,82.5,72.0,76.0,73.6,71.0,98,78,49,0.00,40.00,6,2,20,0.00
2013-8-7,94.0,81.5,71.0,77.0,74.1,71.0,99,81,54,0.00,40.00,5,2,12,0.00
2013-8-8,93.0,80.1,74.0,78.0,75.0,73.0,98,86,55,0.00,40.00,6,2,13,0.00
2013-8-9,96.0,80.8,74.0,79.0,75.2,73.0,99,86,53,0.00,40.00,6,2,23,0.00
2013-8-10,93.0,78.5,73.0,78.0,74.4,72.0,99,89,57,0.00,40.00,5,1,24,0.00
2013-8-11,96.0,81.4,72.0,79.0,74.3,72.0,99,81,47,0.00,40.00,5,2,12,0.00
2013-8-12,95.0,78.4,73.0,79.0,73.6,72.0,99,88,49,0.00,40.00,4,1,12,0.00
2013-8-13,91.0,76.5,72.0,78.0,72.4,-99.9,99,90,63,0.00,40.00,5,1,14,0.02
2013-8-14,89.0,77.5,73.0,79.0,72.1,-99.9,99,90,61,0.00,40.00,5,1,12,0.45
2013-8-15,88.0,74.3,74.0,77.0,68.1,-99.9,99,89,66,0.00,40.00,6,1,12,0.27
2013-8-16,82.0,74.3,71.0,75.0,68.6,-99.9,99,88,74,0.00,40.00,4,2,10,0.25
2013-8-17,73.0,70.5,70.0,71.0,68.6,-99.9,99,96,92,0.00,40.00,6,3,13,1.40
2013-8-18,80.0,72.7,69.0,78.0,72.1,69.0,99,98,93,0.00,40.00,5,2,14,0.85
2013-8-19,93.0,75.5,69.0,77.0,67.2,-99.9,100,84,52,0.00,40.00,3,1,12,0.19
2013-8-20,86.0,74.7,71.0,76.0,72.7,70.0,99,94,71,0.00,40.00,5,1,11,0.39
2013-8-21,92.0,77.1,70.0,76.0,72.0,70.0,99,86,57,0.00,40.00,5,2,12,0.01
2013-8-22,91.0,78.1,70.0,75.0,72.4,69.0,98,85,57,0.00,40.00,5,2,19,0.00
2013-8-23,88.0,77.8,71.0,76.0,72.5,71.0,99,85,63,0.00,40.00,4,2,11,0.00
2013-8-24,90.0,77.9,69.0,75.0,69.8,-99.9,99,81,58,0.00,40.00,4,1,16,0.18
2013-8-25,87.0,76.7,71.0,74.0,71.3,67.0,98,85,62,0.00,40.00,6,3,14,0.18
2013-8-26,89.0,76.8,66.0,67.0,63.8,61.0,87,67,41,0.00,40.00,5,2,14,0.00
2013-8-27,87.0,72.0,65.0,66.0,63.5,62.0,93,78,47,0.00,40.00,3,2,9,0.00
2013-8-28,92.0,84.3,74.0,70.0,68.9,68.0,84,62,46,0.00,40.00,5,2,10,0.00
2013-8-29,94.0,80.0,68.0,72.0,68.3,66.0,95,71,42,0.00,40.00,6,2,15,0.00
2013-8-30,94.0,82.2,72.0,75.0,71.9,69.0,93,73,50,0.00,40.00,7,3,13,0.00
2013-8-31,95.0,80.3,75.0,77.0,72.3,-99.9,96,80,50,0.00,40.00,4,2,16,0.00
2013-9-1,96.0,79.3,72.0,77.0,72.5,71.0,98,83,48,0.00,40.00,3,1,21,0.94
2013-9-2,91.0,76.5,71.0,79.0,73.2,70.0,99,91,63,0.00,40.00,5,1,12,0.09
2013-9-3,91.0,75.1,70.0,78.0,72.4,69.0,99,93,63,0.00,40.00,5,1,15,1.90
2013-9-4,94.0,79.1,69.0,77.0,72.9,69.0,99,84,53,0.00,40.00,5,1,13,0.11
2013-9-5,94.0,80.2,71.0,76.0,72.6,70.0,98,80,49,0.00,40.00,6,1,13,0.00
2013-9-6,92.0,80.1,72.0,72.0,68.3,61.0,96,71,36,0.00,40.00,6,2,12,0.00
2013-9-7,92.0,76.1,69.0,74.0,67.8,-99.9,97,80,54,0.00,40.00,4,1,8,0.25
2013-9-8,93.0,79.6,69.0,75.0,70.2,67.0,98,77,43,0.00,40.00,3,1,6,0.25
2013-9-9,94.0,80.9,69.0,73.0,70.5,68.0,98,74,43,0.00,40.00,5,1,10,0.01
2013-9-10,91.0,80.9,72.0,74.0,70.1,67.0,97,73,46,0.00,40.00,5,2,13,0.01
2013-9-11,92.0,79.8,70.0,71.0,69.5,67.0,95,73,44,0.00,40.00,6,2,15,0.00
2013-9-12,94.0,80.6,70.0,73.0,69.0,65.0,96,71,39,0.00,40.00,3,1,10,0.00
2013-9-13,94.0,80.9,70.0,71.0,68.4,65.0,96,70,39,0.00,40.00,4,2,10,0.00
2013-9-14,91.0,77.1,68.0,70.0,62.9,-99.9,88,66,40,0.00,40.00,5,2,11,0.00
2013-9-15,96.0,77.8,67.0,73.0,66.5,61.0,88,70,43,0.00,40.00,3,1,8,0.00
2013-9-16,94.0,81.2,72.0,75.0,71.5,70.0,96,75,48,0.00,40.00,4,2,13,0.00
2013-9-17,94.0,79.8,71.0,74.0,71.4,69.0,98,78,47,0.00,40.00,4,1,14,1.51
2013-9-18,74.0,72.2,70.0,73.0,70.8,69.0,98,96,86,0.00,40.00,3,1,9,1.51
2013-9-19,90.0,77.4,67.0,70.0,67.8,65.0,93,74,49,0.00,40.00,6,3,14,0.00
2013-9-20,92.0,77.6,67.0,75.0,70.2,64.0,93,80,51,0.00,40.00,6,2,13,0.01
2013-9-21,79.0,73.9,73.0,76.0,71.4,-99.9,98,95,91,0.00,40.00,3,1,14,2.29
2013-9-22,80.0,72.8,68.0,73.0,69.6,67.0,98,90,70,0.00,40.00,5,1,10,0.11
2013-9-23,90.0,75.3,70.0,75.0,71.8,69.0,98,90,57,0.00,40.00,5,2,14,0.95
2013-9-24,80.0,75.0,73.0,75.0,73.1,72.0,99,94,83,0.00,40.00,5,3,24,3.09
2013-9-25,88.0,77.0,71.0,75.0,71.3,68.0,99,85,55,0.00,40.00,6,2,14,2.44
2013-9-26,81.0,71.8,67.0,71.0,68.6,66.0,100,90,65,0.00,40.00,4,1,11,0.01
2013-9-27,84.0,71.7,62.0,66.0,62.8,60.0,100,77,46,0.00,40.00,5,2,12,0.00
2013-9-28,85.0,69.6,60.0,64.0,59.1,-99.9,93,73,47,0.00,40.00,7,2,14,0.00
2013-9-29,84.0,70.1,58.0,68.0,61.7,56.0,94,77,45,0.00,40.00,4,1,11,0.00
2013-9-30,85.0,72.1,65.0,69.0,65.2,62.0,94,81,53,0.00,40.00,3,0,8,0.00
2013-10-1,75.0,72.6,71.0,68.0,68.0,68.0,90,85,80,0.00,40.00,1,0,5,0.00
2013-10-2,82.0,73.5,67.0,70.0,67.8,65.0,94,83,64,0.00,40.00,4,1,11,0.00
2013-10-3,90.0,76.0,66.0,72.0,67.9,65.0,97,79,47,0.00,40.00,6,2,12,0.00
2013-10-4,91.0,77.3,67.0,73.0,69.8,67.0,99,80,51,0.00,40.00,5,1,14,0.00
2013-10-5,91.0,77.7,70.0,74.0,70.7,69.0,99,82,49,0.00,40.00,5,2,12,0.00
2013-10-6,79.0,72.1,68.0,73.0,70.6,67.0,100,95,79,0.00,40.00,6,2,13,0.83
2013-10-7,79.0,68.1,60.0,70.0,59.9,55.0,100,77,48,0.00,40.00,8,5,20,0.20
2013-10-8,81.0,66.7,54.0,68.0,59.7,51.0,93,79,58,0.00,40.00,5,2,12,0.00
2013-10-9,72.0,66.4,61.0,66.0,62.3,60.0,97,87,74,0.00,40.00,5,2,13,0.00
2013-10-10,85.0,70.4,59.0,65.0,62.0,58.0,99,78,49,0.00,40.00,3,1,11,0.00
2013-10-11,85.0,70.2,59.0,69.0,61.6,59.0,99,78,45,0.00,40.00,5,2,13,0.00
2013-10-12,86.0,70.5,61.0,69.0,60.5,-99.9,100,76,45,0.00,40.00,6,2,11,0.00
2013-10-13,86.0,71.9,62.0,64.0,61.7,60.0,96,73,44,0.00,40.00,5,2,13,0.00
2013-10-14,86.0,71.8,62.0,66.0,62.2,59.0,95,74,48,0.00,40.00,5,2,12,0.00
2013-10-15,78.0,66.8,60.0,66.0,62.0,59.0,98,86,62,0.00,40.00,5,2,10,0.00
2013-10-16,85.0,69.8,59.0,67.0,62.4,58.0,99,81,47,0.00,40.00,4,1,7,0.00
2013-10-17,82.0,71.4,65.0,75.0,68.8,64.0,99,92,69,0.00,40.00,5,2,13,0.37
2013-10-18,74.0,67.9,64.0,65.0,64.0,63.0,96,88,72,0.00,40.00,4,1,11,0.21
2013-10-19,69.0,64.4,61.0,64.0,59.2,-99.9,96,86,71,0.00,40.00,5,2,11,0.01
2013-10-20,77.0,62.5,56.0,59.0,56.8,55.0,98,84,49,0.00,40.00,4,2,11,0.01
2013-10-21,75.0,64.2,57.0,64.0,57.9,54.0,92,81,62,0.00,40.00,3,1,7,0.00
2013-10-22,76.0,66.5,61.0,66.0,62.4,54.0,100,88,65,0.00,40.00,4,1,10,0.02
2013-10-23,73.0,60.4,50.0,54.0,47.4,37.0,91,66,30,0.00,40.00,9,4,18,0.01
2013-10-24,77.0,57.8,44.0,54.0,46.0,41.0,90,69,35,0.00,40.00,4,1,9,0.00
2013-10-25,68.0,55.0,45.0,51.0,41.6,31.0,94,65,27,0.00,40.00,6,3,18,0.00
2013-10-26,71.0,51.4,39.0,46.0,35.5,-99.9,85,60,28,0.00,40.00,4,1,10,0.00
2013-10-27,77.0,59.1,44.0,56.0,48.1,41.0,95,71,39,0.00,40.00,3,0,7,0.00
2013-10-28,82.0,64.2,53.0,59.0,53.0,-99.9,97,74,38,0.00,40.00,5,1,8,0.00
2013-10-29,83.0,65.3,53.0,60.0,56.1,52.0,98,76,41,0.00,40.00,4,1,11,0.00
2013-10-30,84.0,66.4,55.0,63.0,58.6,54.0,98,79,44,0.00,40.00,5,1,11,0.00
2013-10-31,81.0,69.9,61.0,71.0,66.6,60.0,100,90,71,0.00,40.00,8,4,21,0.04
2013-11-1,73.0,68.6,59.0,73.0,68.3,59.0,100,98,94,0.00,40.00,5,2,13,0.46
2013-11-2,77.0,60.4,52.0,59.0,47.8,-99.9,100,70,36,0.00,40.00,6,4,18,0.01
2013-11-3,71.0,54.6,44.0,45.0,42.1,37.0,91,67,30,0.00,40.00,5,2,16,0.00
2013-11-4,75.0,57.1,42.0,53.0,47.0,41.0,95,72,44,0.00,40.00,6,2,15,0.00
2013-11-5,76.0,61.4,50.0,56.0,49.1,41.0,77,65,49,0.00,40.00,7,3,21,0.00
2013-11-6,79.0,66.1,55.0,66.0,59.1,48.0,97,79,59,0.00,40.00,5,2,13,0.00
2013-11-7,65.0,58.6,48.0,65.0,55.3,37.0,100,89,63,0.00,40.00,8,4,21,0.10
2013-11-8,67.0,51.4,41.0,42.0,36.3,32.0,78,59,31,0.00,40.00,7,4,22,0.02
2013-11-9,74.0,55.6,41.0,56.0,45.2,-99.9,89,72,46,0.00,40.00,5,1,12,0.00
2013-11-10,77.0,62.2,54.0,56.0,52.1,44.0,92,72,43,0.00,40.00,4,2,11,0.00
2013-11-11,79.0,60.3,49.0,48.0,45.7,43.0,86,63,30,0.00,40.00,5,1,9,0.00
2013-11-12,74.0,56.3,40.0,47.0,41.6,21.0,95,61,37,0.00,40.00,10,6,27,0.00
2013-11-13,57.0,40.6,32.0,26.0,20.6,17.0,67,47,22,0.00,40.00,7,4,21,0.00
2013-11-14,66.0,46.9,32.0,45.0,33.6,21.0,81,61,42,0.00,40.00,6,2,11,0.00
2013-11-15,67.0,58.0,51.0,61.0,54.0,44.0,97,87,75,0.00,40.00,4,3,11,0.02
2013-11-16,74.0,64.0,58.0,65.0,59.7,-99.9,100,89,71,0.00,40.00,4,2,10,0.01
2013-11-17,80.0,71.3,66.0,73.0,68.8,64.0,100,92,77,0.00,40.00,6,3,16,0.01
2013-11-18,79.0,70.8,56.0,73.0,62.2,37.0,100,77,43,0.00,40.00,7,2,15,0.09
2013-11-19,68.0,54.1,46.0,41.0,37.9,35.0,77,56,33,0.00,40.00,5,3,16,0.08
2013-11-20,71.0,54.5,43.0,53.0,45.3,38.0,85,72,53,0.00,40.00,6,2,15,0.00
2013-11-21,67.0,59.8,55.0,60.0,53.5,46.0,95,80,72,0.00,40.00,6,3,15,0.00
2013-11-22,71.0,63.2,57.0,65.0,61.5,57.0,100,94,78,0.00,40.00,4,1,8,0.00
2013-11-23,68.0,60.9,50.0,65.0,55.9,-99.9,100,86,56,0.00,40.00,8,4,20,0.00
2013-11-24,58.0,45.9,39.0,35.0,27.1,22.0,64,50,28,0.00,40.00,7,4,21,0.00
2013-11-25,55.0,47.3,38.0,51.0,35.1,25.0,89,63,53,0.00,40.00,7,5,19,0.02
2013-11-26,67.0,55.0,46.0,67.0,54.9,46.0,100,99,86,0.00,40.00,9,6,21,1.25
2013-11-27,48.0,40.0,30.0,47.0,31.1,23.0,100,73,41,0.00,40.00,11,7,27,0.16
2013-11-28,52.0,36.2,25.0,31.0,23.4,18.0,85,64,26,0.00,40.00,5,2,14,0.01
2013-11-29,63.0,43.1,31.0,34.0,28.3,24.0,87,61,23,0.00,40.00,5,2,12,0.00
2013-11-30,70.0,47.5,34.0,44.0,34.3,-99.9,92,66,31,0.00,40.00,5,1,10,0.00
2013-12-1,66.0,51.9,41.0,50.0,45.4,40.0,96,81,52,0.00,40.00,3,0,7,0.00
2013-12-2,73.0,57.2,45.0,56.0,50.3,45.0,100,81,43,0.00,40.00,3,1,10,0.00
2013-12-3,77.0,64.8,55.0,65.0,59.8,55.0,100,86,52,0.00,40.00,8,3,21,0.01
2013-12-4,76.0,66.7,60.0,76.0,66.5,60.0,100,99,84,0.00,40.00,5,2,16,0.55
2013-12-5,80.0,73.1,68.0,77.0,71.4,68.0,100,95,73,0.00,40.00,7,3,16,0.22
2013-12-6,81.0,74.0,61.0,74.0,71.3,61.0,100,92,69,0.00,40.00,9,4,20,0.10
2013-12-7,61.0,47.7,46.0,61.0,46.6,-99.9,100,99,100,0.00,40.00,7,4,20,0.16
2013-12-8,71.0,59.1,47.0,71.0,59.1,47.0,100,100,96,0.00,40.00,6,3,14,0.01
2013-12-9,74.0,67.5,62.0,74.0,67.4,62.0,100,100,97,0.00,40.00,6,2,13,0.26
2013-12-10,67.0,49.6,37.0,67.0,47.4,36.0,100,93,71,0.00,40.00,12,5,26,0.22
2013-12-11,64.0,46.1,34.0,45.0,38.5,32.0,100,77,47,0.00,40.00,4,3,10,0.01
2013-12-12,59.0,45.7,33.0,39.0,29.7,20.0,79,56,25,0.00,40.00,8,4,18,0.00
2013-12-13,57.0,42.7,30.0,42.0,31.2,24.0,82,65,39,0.00,40.00,5,2,9,0.00
2013-12-14,72.0,60.3,49.0,72.0,58.0,-99.9,100,95,76,0.00,40.00,6,3,19,0.48
2013-12-15,57.0,43.6,34.0,57.0,39.1,33.0,100,85,67,0.00,40.00,8,6,21,0.11
2013-12-16,63.0,41.2,30.0,37.0,33.8,30.0,100,80,36,0.00,40.00,5,1,10,0.00
2013-12-17,67.0,46.5,33.0,42.0,35.9,33.0,100,73,30,0.00,40.00,6,2,12,0.00
2013-12-18,65.0,47.6,36.0,41.0,36.0,32.0,100,69,29,0.00,40.00,5,2,9,0.00
2013-12-19,69.0,48.9,34.0,53.0,42.1,33.0,98,81,40,0.00,40.00,4,2,9,0.00
2013-12-20,75.0,58.6,46.0,64.0,55.2,42.0,100,89,66,0.00,40.00,6,2,12,0.02
2013-12-21,75.0,69.2,62.0,73.0,67.4,-99.9,100,96,87,0.00,40.00,9,6,32,0.03
2013-12-22,74.0,66.0,55.0,74.0,65.9,55.0,100,100,95,0.00,40.00,10,6,23,2.08
2013-12-23,55.0,49.5,40.0,55.0,47.9,33.0,100,94,76,0.00,40.00,9,5,24,1.18
2013-12-24,53.0,39.4,31.0,33.0,28.9,25.0,96,69,38,0.00,40.00,9,5,25,0.05
2013-12-25,54.0,39.7,27.0,37.0,29.4,23.0,90,69,39,0.00,40.00,4,2,9,0.00
2013-12-26,58.0,45.4,37.0,39.0,37.5,35.0,97,75,48,0.00,40.00,6,3,15,0.00
2013-12-27,59.0,48.3,40.0,38.0,36.2,34.0,83,65,40,0.00,40.00,5,3,12,0.00
2013-12-28,51.0,46.5,44.0,51.0,43.8,-99.9,100,94,59,0.00,40.00,8,3,18,1.58
2013-12-29,52.0,47.1,42.0,51.0,46.7,42.0,100,99,90,0.00,40.00,6,3,15,0.71
2013-12-30,58.0,47.4,38.0,52.0,45.8,38.0,100,95,68,0.00,40.00,3,1,8,0.00
2013-12-31,49.0,45.0,43.0,49.0,42.6,39.0,100,91,81,0.00,40.00,6,3,17,0.01
2014-1-1,56.0,48.3,43.0,52.0,47.5,43.0,100,97,84,0.00,40.00,3,1,7,0.18
2014-1-2,58.0,49.0,34.0,56.0,45.5,26.0,100,89,67,0.00,40.00,12,4,28,0.24